Time;durP1;ratioP1;P1;durP2;ratioP2;P2;SDS_P1;SDS_P2;PMS_P1;PMS_P2;Temp;Humidity;BMP_temperature;BMP_pressure;BME280_temperature;BME280_humidity;BME280_pressure;Samples;Min_cycle;Max_cycle;Signal;HPM_P1;HPM_P2
2022/12/04 00:01:41;;;;;;;;;6.40;6.00;;;;;2.25;78.96;99998.53;5075482;28;8830;-59
2022/12/04 00:04:08;;;;;;;;;9.20;8.80;;;;;2.24;78.62;99994.22;5075653;28;8865;-60
2022/12/04 00:06:36;;;;;;;;;7.00;6.20;;;;;2.23;79.25;99989.88;5076342;28;8838;-60
2022/12/04 00:09:04;;;;;;;;;9.40;7.80;;;;;2.23;79.37;99987.25;5075744;28;8822;-59
2022/12/04 00:11:33;;;;;;;;;12.80;10.40;;;;;2.24;78.74;99995.97;5075907;28;8829;-60
2022/12/04 00:14:00;;;;;;;;;8.60;6.80;;;;;2.26;78.66;99995.00;5082542;28;8835;-59
2022/12/04 00:16:33;;;;;;;;;8.60;8.60;;;;;2.25;78.89;99985.41;5096564;28;9594;-59
2022/12/04 00:19:01;;;;;;;;;7.40;6.80;;;;;2.25;78.91;99985.41;5096515;28;8815;-59
2022/12/04 00:21:29;;;;;;;;;12.20;11.20;;;;;2.24;78.63;99980.22;5096477;28;8853;-60
2022/12/04 00:23:57;;;;;;;;;15.20;12.20;;;;;2.24;79.14;99983.72;5091069;28;8818;-60
2022/12/04 00:26:25;;;;;;;;;6.20;5.60;;;;;2.24;79.01;99983.72;5076500;28;8825;-59
2022/12/04 00:28:52;;;;;;;;;9.40;7.80;;;;;2.26;78.54;99988.91;5075997;28;8810;-58
2022/12/04 00:31:21;;;;;;;;;10.20;9.60;;;;;2.27;78.68;99982.72;5076034;28;8812;-58
2022/12/04 00:33:48;;;;;;;;;6.60;4.80;;;;;2.29;78.48;99988.75;5076193;28;8856;-59
2022/12/04 00:36:16;;;;;;;;;6.00;3.00;;;;;2.32;79.21;99980.72;5075859;28;8849;-58
2022/12/04 00:38:44;;;;;;;;;9.40;9.00;;;;;2.30;78.90;99980.81;5076037;28;8956;-59
2022/12/04 00:41:12;;;;;;;;;14.60;10.00;;;;;2.31;78.30;99973.75;5076291;28;8821;-57
2022/12/04 00:43:39;;;;;;;;;15.40;13.80;;;;;2.31;78.51;99979.03;5079768;28;9513;-59
2022/12/04 00:46:08;;;;;;;;;13.00;12.20;;;;;2.28;78.48;99969.50;5096265;28;8839;-58
2022/12/04 00:48:36;;;;;;;;;6.40;6.00;;;;;2.27;78.72;99972.22;5096540;28;9493;-60
2022/12/04 00:51:03;;;;;;;;;13.00;12.60;;;;;2.25;78.79;99964.41;5096375;28;8834;-58
2022/12/04 00:53:36;;;;;;;;;15.20;10.20;;;;;2.24;79.06;99965.31;5096601;28;8819;-60
2022/12/04 00:56:03;;;;;;;;;9.20;9.00;;;;;2.24;78.84;99967.09;5096487;28;8839;-59
2022/12/04 00:58:31;;;;;;;;;10.40;10.20;;;;;2.22;78.17;99963.69;5086693;28;8806;-59
2022/12/04 01:00:59;;;;;;;;;9.80;8.60;;;;;2.20;78.55;99955.88;5076222;28;8834;-58
2022/12/04 01:03:27;;;;;;;;;6.40;6.40;;;;;2.21;78.94;99965.44;5075886;28;8806;-57
2022/12/04 01:05:57;;;;;;;;;15.60;13.40;;;;;2.22;78.66;99958.44;5075750;28;8814;-57
2022/12/04 01:08:24;;;;;;;;;9.00;8.20;;;;;2.22;78.46;99964.56;5075678;28;8841;-59
2022/12/04 01:10:52;;;;;;;;;9.40;8.60;;;;;2.23;79.38;99966.25;5075282;28;8919;-60
2022/12/04 01:13:19;;;;;;;;;10.80;9.20;;;;;2.25;78.29;99964.41;5075777;28;8926;-57
2022/12/04 01:15:48;;;;;;;;;7.00;3.20;;;;;2.25;78.94;99964.41;5095292;28;8860;-57
2022/12/04 01:18:16;;;;;;;;;13.60;11.60;;;;;2.27;78.92;99962.53;5095179;28;8842;-59
2022/12/04 01:20:44;;;;;;;;;13.80;11.40;;;;;2.26;79.13;99965.25;5095614;28;8830;-57
2022/12/04 01:23:12;;;;;;;;;12.20;7.00;;;;;2.26;78.44;99968.72;5095551;28;8835;-59
2022/12/04 01:25:40;;;;;;;;;9.20;8.20;;;;;2.26;79.21;99955.59;5095641;28;8848;-59
2022/12/04 01:28:07;;;;;;;;;11.60;7.80;;;;;2.25;78.59;99963.53;5090179;28;8830;-57
2022/12/04 01:30:35;;;;;;;;;11.20;10.00;;;;;2.25;79.04;99966.16;5075651;28;8840;-57
2022/12/04 01:33:03;;;;;;;;;12.20;9.00;;;;;2.24;78.97;99967.09;5075606;28;8822;-59
2022/12/04 01:35:31;;;;;;;;;6.00;4.80;;;;;2.23;78.38;99963.63;5075789;28;8924;-59
2022/12/04 01:37:59;;;;;;;;;9.80;7.00;;;;;2.25;79.33;99963.53;5075807;28;8814;-58
2022/12/04 01:40:26;;;;;;;;;8.20;7.40;;;;;2.25;78.79;99966.16;5075896;28;8838;-59
2022/12/04 01:42:54;;;;;;;;;8.80;8.00;;;;;2.25;78.95;99961.78;5075129;28;8822;-59
2022/12/04 01:45:22;;;;;;;;;11.20;9.60;;;;;2.25;78.47;99964.41;5092945;28;8873;-60
2022/12/04 01:47:49;;;;;;;;;7.40;6.80;;;;;2.25;78.97;99960.91;5095378;28;8913;-58
2022/12/04 01:50:17;;;;;;;;;7.80;7.40;;;;;2.24;78.94;99962.69;5095811;28;8824;-60
2022/12/04 01:52:44;;;;;;;;;7.40;6.80;;;;;2.22;78.74;99959.28;5095488;28;8832;-60
2022/12/04 01:55:13;;;;;;;;;5.60;4.80;;;;;2.20;78.40;99955.88;5095715;28;8819;-59
2022/12/04 01:57:41;;;;;;;;;8.60;7.40;;;;;2.19;78.41;99956.78;5093793;28;9519;-59
2022/12/04 02:00:09;;;;;;;;;11.60;11.60;;;;;2.15;78.84;99952.63;5075443;28;8822;-60
2022/12/04 02:02:37;;;;;;;;;7.00;7.00;;;;;2.10;78.86;99954.59;5075177;28;8830;-59
2022/12/04 02:05:04;;;;;;;;;8.60;7.60;;;;;2.03;78.53;99942.66;5075768;28;8806;-60
2022/12/04 02:07:32;;;;;;;;;7.80;7.80;;;;;1.97;79.38;99950.81;5075770;28;9660;-60
2022/12/04 02:10:05;;;;;;;;;4.00;4.00;;;;;1.91;79.67;99953.69;5075507;28;8825;-60
2022/12/04 02:12:32;;;;;;;;;7.00;6.00;;;;;1.83;79.81;99950.56;5075061;28;8841;-60
2022/12/04 02:15:00;;;;;;;;;3.60;3.40;;;;;1.75;79.45;99957.09;5091363;28;8886;-60
2022/12/04 02:17:28;;;;;;;;;10.40;9.40;;;;;1.66;79.30;99957.50;5098399;28;8869;-60
2022/12/04 02:20:00;;;;;;;;;8.00;8.00;;;;;1.59;79.46;99959.50;5098577;28;8827;-60
2022/12/04 02:22:28;;;;;;;;;9.00;9.00;;;;;1.55;79.50;99957.09;5097922;28;8836;-60
2022/12/04 02:24:55;;;;;;;;;11.80;8.60;;;;;1.49;80.36;99960.84;5098034;28;8828;-60
2022/12/04 02:27:23;;;;;;;;;5.60;5.60;;;;;1.45;80.06;99959.25;5098295;28;8819;-60
2022/12/04 02:29:51;;;;;;;;;10.20;6.80;;;;;1.38;79.71;99963.03;5078356;28;8846;-59
2022/12/04 02:32:20;;;;;;;;;6.60;6.20;;;;;1.32;80.29;99968.56;5078934;28;8822;-59
2022/12/04 02:34:48;;;;;;;;;7.80;7.80;;;;;1.24;80.48;99970.66;5078528;28;8821;-60
2022/12/04 02:37:15;;;;;;;;;9.60;8.40;;;;;1.16;80.37;99961.41;5070145;28;8885;-60
2022/12/04 02:39:43;;;;;;;;;6.60;6.40;;;;;1.11;80.06;99956.34;5079046;28;8906;-59
2022/12/04 02:42:11;;;;;;;;;9.40;7.00;;;;;1.06;80.39;99955.69;5078941;28;8845;-59
2022/12/04 02:44:39;;;;;;;;;6.40;6.20;;;;;1.07;80.84;99961.78;5090694;28;8851;-59
2022/12/04 02:47:07;;;;;;;;;7.20;5.80;;;;;1.07;80.34;99967.03;5099175;28;8812;-59
2022/12/04 02:49:34;;;;;;;;;4.40;3.00;;;;;1.04;80.02;99965.38;5099376;28;8885;-59
2022/12/04 02:52:02;;;;;;;;;6.60;5.20;;;;;1.06;80.64;99965.34;5099421;28;8824;-59
2022/12/04 02:54:30;;;;;;;;;0.60;0.20;;;;;1.05;80.66;99959.22;5098963;28;8819;-59
2022/12/04 02:56:58;;;;;;;;;6.00;4.40;;;;;1.07;80.57;99962.63;5098629;28;8812;-58
2022/12/04 02:59:25;;;;;;;;;3.20;3.20;;;;;1.06;80.93;99958.31;5082613;28;8822;-59
2022/12/04 03:01:53;;;;;;;;;9.00;6.40;;;;;1.06;80.39;99950.44;5078277;28;8840;-59
2022/12/04 03:04:21;;;;;;;;;9.40;8.00;;;;;1.04;80.45;99947.03;5078172;28;8980;-59
2022/12/04 03:06:49;;;;;;;;;6.80;6.00;;;;;1.04;80.02;99951.41;5078212;28;8818;-57
2022/12/04 03:09:18;;;;;;;;;8.40;7.80;;;;;1.09;80.78;99967.81;5078118;28;8841;-60
2022/12/04 03:11:46;;;;;;;;;6.00;6.00;;;;;1.16;80.66;99969.28;5078384;28;8911;-58
2022/12/04 03:14:13;;;;;;;;;3.00;3.00;;;;;1.22;81.03;99954.13;5086128;28;8901;-58
2022/12/04 03:16:41;;;;;;;;;6.00;6.00;;;;;1.27;79.89;99954.78;5097983;28;8909;-59
2022/12/04 03:19:09;;;;;;;;;6.60;5.80;;;;;1.33;80.45;99959.78;5098538;28;8808;-59
2022/12/04 03:21:37;;;;;;;;;7.40;6.60;;;;;1.37;79.70;99961.34;5098189;28;8836;-60
2022/12/04 03:24:04;;;;;;;;;6.20;5.20;;;;;1.41;79.94;99962.94;5097905;28;8816;-59
2022/12/04 03:26:32;;;;;;;;;7.00;6.20;;;;;1.45;79.35;99959.25;5098172;28;8948;-59
2022/12/04 03:29:00;;;;;;;;;6.00;4.00;;;;;1.51;79.65;99959.00;5086103;28;8854;-60
2022/12/04 03:31:28;;;;;;;;;2.20;2.20;;;;;1.56;79.57;99948.31;5077924;28;8844;-59
2022/12/04 03:33:56;;;;;;;;;11.60;10.80;;;;;1.59;79.79;99954.25;5077048;28;8922;-59
2022/12/04 03:36:23;;;;;;;;;9.20;6.80;;;;;1.61;79.50;99955.03;5076177;28;8833;-59
2022/12/04 03:38:51;;;;;;;;;3.00;3.00;;;;;1.66;79.82;99952.25;5076432;28;8838;-59
2022/12/04 03:41:19;;;;;;;;;6.60;6.20;;;;;1.69;79.43;99946.84;5076249;28;8899;-57
2022/12/04 03:43:46;;;;;;;;;4.00;3.20;;;;;1.73;78.76;99951.03;5080707;28;8924;-59
2022/12/04 03:46:15;;;;;;;;;7.00;6.60;;;;;1.76;79.41;99951.75;5096957;28;8820;-58
2022/12/04 03:48:42;;;;;;;;;6.00;6.00;;;;;1.78;78.88;99949.94;5096655;28;8844;-59
2022/12/04 03:51:10;;;;;;;;;9.20;6.80;;;;;1.80;79.01;99945.47;5097557;28;8844;-58
2022/12/04 03:53:38;;;;;;;;;6.00;4.80;;;;;1.84;79.09;99943.56;5097713;28;8842;-59
2022/12/04 03:56:05;;;;;;;;;4.00;4.00;;;;;1.85;79.22;99946.13;5097514;28;8828;-59
2022/12/04 03:58:35;;;;;;;;;14.20;9.40;;;;;1.88;79.51;99935.47;5090399;28;8833;-58
2022/12/04 04:01:03;;;;;;;;;6.00;5.60;;;;;1.92;79.07;99938.81;5077137;28;8858;-57
2022/12/04 04:03:31;;;;;;;;;6.60;5.60;;;;;1.93;79.74;99935.25;5077161;28;9532;-57
2022/12/04 04:05:59;;;;;;;;;1.20;0.80;;;;;1.94;79.34;99936.97;5076377;28;8864;-58
2022/12/04 04:08:29;;;;;;;;;2.60;2.20;;;;;1.95;79.11;99944.78;5077055;28;8806;-58
2022/12/04 04:10:57;;;;;;;;;5.60;4.00;;;;;1.98;78.61;99949.03;5077083;28;8810;-58
2022/12/04 04:24:27;;;;;;;;;7.80;6.40;;;;;2.04;78.68;99960.09;5076420;28;8903;-60
2022/12/04 04:26:55;;;;;;;;;8.20;7.00;;;;;2.04;79.24;99957.50;5077239;28;8848;-59
2022/12/04 04:29:22;;;;;;;;;9.80;9.00;;;;;2.05;78.59;99963.59;5076469;28;8842;-59
2022/12/04 04:31:50;;;;;;;;;8.00;7.40;;;;;2.03;78.55;99953.16;5077091;28;8834;-58
2022/12/04 04:34:18;;;;;;;;;1.40;1.40;;;;;2.04;78.96;99954.88;5076907;28;8825;-59
2022/12/04 04:36:45;;;;;;;;;8.40;6.20;;;;;2.04;78.76;99956.66;5076199;28;8830;-59
2022/12/04 04:39:13;;;;;;;;;6.00;4.00;;;;;2.06;78.67;99950.38;5076354;28;8842;-57
2022/12/04 04:41:41;;;;;;;;;6.00;6.00;;;;;2.08;78.33;99959.06;5076515;28;9506;-59
2022/12/04 04:44:08;;;;;;;;;11.60;9.80;;;;;2.09;78.91;99958.16;5083866;28;8917;-57
2022/12/04 04:46:36;;;;;;;;;7.40;7.00;;;;;2.09;78.54;99957.28;5096439;28;8844;-59
2022/12/04 04:49:03;;;;;;;;;3.00;3.00;;;;;2.08;78.44;99956.44;5096363;28;8808;-60
2022/12/04 04:51:32;;;;;;;;;5.60;5.60;;;;;2.08;78.25;99947.69;5087390;28;8887;-60
2022/12/04 04:53:59;;;;;;;;;8.40;8.20;;;;;2.08;78.37;99950.31;5076109;28;8829;-60
2022/12/04 04:56:27;;;;;;;;;1.80;1.80;;;;;2.08;78.68;99945.94;5076282;28;8927;-59
2022/12/04 04:58:55;;;;;;;;;2.80;2.20;;;;;2.08;79.12;99935.44;5076018;28;8826;-60
2022/12/04 05:01:22;;;;;;;;;4.00;4.00;;;;;2.09;78.25;99949.41;5075896;28;8858;-59
2022/12/04 05:03:50;;;;;;;;;3.40;3.20;;;;;2.11;78.86;99939.69;5075943;28;8817;-60
2022/12/04 05:06:18;;;;;;;;;4.00;4.00;;;;;2.11;78.78;99944.94;5075973;28;8838;-59
2022/12/04 05:08:48;;;;;;;;;3.00;3.00;;;;;2.09;78.63;99942.38;5076139;28;8833;-60
2022/12/04 05:11:15;;;;;;;;;6.20;5.20;;;;;2.08;78.98;99943.31;5075938;28;8944;-59
2022/12/04 05:13:43;;;;;;;;;4.80;4.00;;;;;2.07;79.05;99938.13;5079637;28;8836;-57
2022/12/04 05:16:11;;;;;;;;;5.60;5.20;;;;;2.08;78.31;99945.94;5096521;28;8855;-59
2022/12/04 05:18:39;;;;;;;;;4.00;4.00;;;;;2.09;78.05;99946.78;5096337;28;8832;-59
2022/12/04 05:21:06;;;;;;;;;7.00;6.20;;;;;2.07;78.92;99933.75;5090567;28;8810;-56
2022/12/04 05:23:33;;;;;;;;;2.60;2.60;;;;;2.07;78.61;99935.50;5076380;28;8849;-59
2022/12/04 05:26:03;;;;;;;;;6.20;5.20;;;;;2.07;78.54;99933.75;5076036;28;8818;-59
2022/12/04 05:28:31;;;;;;;;;8.20;6.40;;;;;2.07;78.94;99932.88;5076215;28;9468;-58
2022/12/04 05:30:58;;;;;;;;;4.80;4.80;;;;;2.06;78.33;99936.41;5076066;28;8814;-58
2022/12/04 05:33:26;;;;;;;;;6.60;4.00;;;;;2.04;78.02;99928.59;5075719;28;8826;-57
2022/12/04 05:35:54;;;;;;;;;5.60;5.60;;;;;2.05;78.59;99932.09;5075660;28;8853;-59
2022/12/04 05:38:23;;;;;;;;;8.40;6.60;;;;;2.06;78.22;99931.16;5075618;28;8822;-57
2022/12/04 05:40:52;;;;;;;;;3.00;1.40;;;;;2.04;78.00;99927.78;5075733;28;8903;-59
2022/12/04 05:43:19;;;;;;;;;6.00;5.60;;;;;2.04;78.33;99925.97;5076260;28;8814;-56
2022/12/04 05:45:47;;;;;;;;;6.60;5.60;;;;;2.04;78.24;99925.16;5095785;28;8827;-59
2022/12/04 05:48:15;;;;;;;;;5.60;5.20;;;;;2.04;78.64;99923.34;5096054;28;8889;-59
2022/12/04 05:50:43;;;;;;;;;6.20;6.00;;;;;2.03;78.37;99926.91;5097263;28;8920;-59
2022/12/04 05:53:11;;;;;;;;;3.80;3.40;;;;;2.04;78.21;99922.53;5079993;28;8837;-57
2022/12/04 05:55:39;;;;;;;;;6.40;5.20;;;;;2.05;78.38;99935.56;5079773;28;8918;-57
2022/12/04 05:58:06;;;;;;;;;8.40;7.80;;;;;2.08;78.63;99937.19;5079481;28;8834;-59
2022/12/04 06:00:34;;;;;;;;;6.80;6.40;;;;;2.10;78.64;99932.72;5079399;28;8830;-57
2022/12/04 06:03:02;;;;;;;;;6.00;6.00;;;;;2.10;78.19;99932.72;5079728;28;9443;-58
2022/12/04 06:05:30;;;;;;;;;6.20;5.20;;;;;2.09;77.75;99934.50;5079665;28;8822;-59
2022/12/04 06:07:58;;;;;;;;;6.60;6.60;;;;;2.09;78.06;99934.50;5079618;28;8802;-57
2022/12/04 06:10:26;;;;;;;;;5.40;5.40;;;;;2.12;78.36;99941.41;5079776;28;8989;-59
2022/12/04 06:12:56;;;;;;;;;5.00;4.00;;;;;2.14;77.83;99945.63;5079467;28;8934;-59
2022/12/04 06:15:24;;;;;;;;;10.00;7.40;;;;;2.14;78.32;99940.38;5097936;28;9637;-59
2022/12/04 06:17:52;;;;;;;;;4.00;3.00;;;;;2.14;77.93;99935.13;5099626;28;8842;-59
2022/12/04 06:20:20;;;;;;;;;3.20;2.60;;;;;2.17;78.15;99944.66;5099635;28;8928;-57
2022/12/04 06:22:48;;;;;;;;;3.00;1.00;;;;;2.15;77.89;99936.88;5080383;28;8814;-59
2022/12/04 06:25:15;;;;;;;;;7.00;7.00;;;;;2.17;78.53;99940.25;5079056;28;9499;-58
2022/12/04 06:27:43;;;;;;;;;5.20;5.20;;;;;2.18;77.98;99935.84;5078765;28;9534;-60
2022/12/04 06:30:11;;;;;;;;;10.40;9.80;;;;;2.18;78.43;99934.09;5079247;28;8834;-59
2022/12/04 06:32:39;;;;;;;;;9.80;9.60;;;;;2.20;77.96;99940.09;5078541;28;8856;-57
2022/12/04 06:35:06;;;;;;;;;5.20;4.40;;;;;2.18;78.15;99934.09;5078631;28;8971;-59
2022/12/04 06:37:34;;;;;;;;;4.80;3.40;;;;;2.18;77.97;99933.22;5078952;28;8814;-60
2022/12/04 06:40:02;;;;;;;;;7.80;7.00;;;;;2.17;78.35;99940.25;5079027;28;8826;-60
2022/12/04 06:42:31;;;;;;;;;6.00;6.00;;;;;2.17;78.01;99944.66;5078923;28;8833;-60
2022/12/04 06:44:58;;;;;;;;;7.40;6.60;;;;;2.16;77.83;99943.81;5092791;28;8823;-60
2022/12/04 06:47:26;;;;;;;;;7.80;5.20;;;;;2.15;78.35;99939.50;5098912;28;8827;-60
2022/12/04 06:49:53;;;;;;;;;6.80;6.20;;;;;2.17;78.35;99944.66;5099244;28;8840;-60
2022/12/04 06:52:21;;;;;;;;;7.20;6.40;;;;;2.17;77.43;99942.03;5083731;28;8821;-60
2022/12/04 06:54:49;;;;;;;;;3.40;3.00;;;;;2.15;77.92;99950.00;5078696;28;8829;-59
2022/12/04 06:57:17;;;;;;;;;4.80;4.00;;;;;2.17;78.14;99944.66;5070336;28;8837;-60
2022/12/04 06:59:44;;;;;;;;;5.60;3.60;;;;;2.14;77.77;99943.00;5078233;28;8826;-58
2022/12/04 07:02:12;;;;;;;;;5.80;4.00;;;;;2.15;78.17;99947.38;5078748;28;8853;-58
2022/12/04 07:04:44;;;;;;;;;5.20;4.00;;;;;2.14;77.96;99937.75;5078256;28;8837;-57
2022/12/04 07:07:11;;;;;;;;;4.40;4.40;;;;;2.16;78.01;99943.81;5078522;28;8872;-59
2022/12/04 07:09:39;;;;;;;;;4.40;3.60;;;;;2.14;77.77;99945.63;5078250;28;8959;-58
2022/12/04 07:12:07;;;;;;;;;7.00;4.00;;;;;2.15;77.98;99951.75;5078243;28;8918;-57
2022/12/04 07:14:34;;;;;;;;;7.80;6.40;;;;;2.14;78.32;99950.88;5089192;28;8928;-57
2022/12/04 07:17:02;;;;;;;;;6.60;5.60;;;;;2.16;78.07;99954.31;5098196;28;8913;-57
2022/12/04 07:19:30;;;;;;;;;6.60;6.00;;;;;2.18;77.62;99954.22;5098233;28;8835;-60
2022/12/04 07:21:57;;;;;;;;;4.60;4.40;;;;;2.17;78.12;99949.91;5086064;28;8821;-59
2022/12/04 07:24:25;;;;;;;;;3.00;3.00;;;;;2.18;77.71;99947.22;5077539;28;8940;-58
2022/12/04 07:26:53;;;;;;;;;6.00;6.00;;;;;2.19;78.11;99954.16;5077950;28;9515;-58
2022/12/04 07:29:21;;;;;;;;;10.40;7.80;;;;;2.18;78.11;99951.59;5077527;28;8848;-59
2022/12/04 07:31:49;;;;;;;;;1.80;1.40;;;;;2.18;77.74;99952.47;5077763;28;8814;-59
2022/12/04 07:34:17;;;;;;;;;4.80;4.40;;;;;2.19;77.56;99948.91;5078113;28;9472;-59
2022/12/04 07:36:44;;;;;;;;;5.20;4.00;;;;;2.19;77.59;99951.53;5077895;28;9861;-58
2022/12/04 07:39:12;;;;;;;;;7.80;6.00;;;;;2.20;77.95;99945.34;5077495;28;8830;-57
2022/12/04 07:41:40;;;;;;;;;6.00;4.80;;;;;2.21;78.05;99956.72;5077306;28;8825;-58
2022/12/04 07:44:08;;;;;;;;;9.40;9.20;;;;;2.23;77.59;99957.50;5084257;28;8800;-59
2022/12/04 07:46:36;;;;;;;;;4.20;3.40;;;;;2.22;77.90;99947.94;5090670;28;8826;-59
2022/12/04 07:49:03;;;;;;;;;6.40;6.40;;;;;2.24;77.58;99956.56;5076990;28;8822;-58
2022/12/04 07:51:31;;;;;;;;;7.40;7.40;;;;;2.25;78.07;99948.63;5077010;28;8833;-59
2022/12/04 07:54:01;;;;;;;;;5.60;5.60;;;;;2.27;77.85;99953.84;5076916;28;8832;-59
2022/12/04 07:56:30;;;;;;;;;7.40;5.80;;;;;2.25;77.46;99953.03;5077248;28;8853;-59
2022/12/04 07:58:59;;;;;;;;;6.00;6.00;;;;;2.24;77.54;99951.31;5077279;28;8854;-59
2022/12/04 08:01:26;;;;;;;;;7.80;7.80;;;;;2.22;77.66;99954.03;5077192;28;8826;-59
2022/12/04 08:03:54;;;;;;;;;7.40;7.00;;;;;2.21;77.60;99956.72;5077119;28;8890;-57
2022/12/04 08:06:23;;;;;;;;;9.40;9.00;;;;;2.22;78.09;99956.66;5077209;28;8833;-58
2022/12/04 08:08:52;;;;;;;;;11.00;9.60;;;;;2.24;77.96;99962.69;5077165;28;8817;-60
2022/12/04 08:11:21;;;;;;;;;9.60;8.60;;;;;2.27;77.96;99964.34;5076598;28;8842;-58
2022/12/04 08:13:48;;;;;;;;;9.60;8.00;;;;;2.28;77.95;99959.00;5080914;28;8938;-57
2022/12/04 08:16:16;;;;;;;;;6.20;6.00;;;;;2.29;78.16;99960.69;5093543;28;8845;-58
2022/12/04 08:18:47;;;;;;;;;6.40;6.00;;;;;2.31;77.61;99969.38;5076471;28;8814;-60
2022/12/04 08:21:15;;;;;;;;;6.00;6.00;;;;;2.32;77.25;99963.19;5077172;28;8830;-59
2022/12/04 08:23:43;;;;;;;;;7.40;6.60;;;;;2.35;77.37;99964.84;5076727;28;8825;-58
2022/12/04 08:26:10;;;;;;;;;6.20;4.80;;;;;2.35;77.38;99965.66;5076613;28;8861;-56
2022/12/04 08:28:38;;;;;;;;;6.80;6.80;;;;;2.38;77.68;99970.81;5075527;28;8829;-59
2022/12/04 08:31:06;;;;;;;;;3.60;3.20;;;;;2.40;77.43;99970.72;5076792;28;8829;-60
2022/12/04 08:33:34;;;;;;;;;10.60;7.60;;;;;2.41;77.38;99977.69;5077281;28;8834;-59
2022/12/04 08:36:02;;;;;;;;;4.00;3.60;;;;;2.40;77.84;99974.19;5076538;28;8821;-57
2022/12/04 08:38:30;;;;;;;;;6.40;6.40;;;;;2.41;77.61;99970.66;5076257;28;8832;-60
2022/12/04 08:40:57;;;;;;;;;5.20;4.40;;;;;2.42;77.87;99972.34;5076225;28;8865;-57
2022/12/04 08:43:25;;;;;;;;;7.40;7.00;;;;;2.43;77.84;99966.16;5077508;28;8824;-57
2022/12/04 08:45:53;;;;;;;;;11.00;9.00;;;;;2.46;77.60;99959.91;5096358;28;8834;-58
2022/12/04 08:48:21;;;;;;;;;9.00;7.40;;;;;2.45;77.23;99964.34;5096321;28;8832;-59
2022/12/04 08:50:48;;;;;;;;;9.40;9.20;;;;;2.45;77.07;99969.59;5096556;28;8854;-58
2022/12/04 08:53:16;;;;;;;;;6.40;6.20;;;;;2.48;77.59;99966.81;5095843;28;8958;-59
2022/12/04 08:55:47;;;;;;;;;8.60;7.00;;;;;2.49;77.37;99971.13;5096019;28;8850;-58
2022/12/04 08:58:15;;;;;;;;;6.00;6.00;;;;;2.49;77.48;99971.13;5090592;28;8814;-57
2022/12/04 09:00:43;;;;;;;;;6.80;6.00;;;;;2.51;77.74;99971.91;5073823;28;8821;-59
2022/12/04 09:03:10;;;;;;;;;5.80;5.80;;;;;2.51;77.79;99974.53;5074157;28;9415;-59
2022/12/04 09:05:38;;;;;;;;;7.80;7.60;;;;;2.54;76.90;99982.31;5074902;28;8825;-59
2022/12/04 09:08:06;;;;;;;;;4.00;4.00;;;;;2.55;77.12;99968.22;5075184;28;8834;-59
2022/12/04 09:10:34;;;;;;;;;4.00;3.40;;;;;2.60;76.83;99973.28;5074825;28;8846;-58
2022/12/04 09:13:02;;;;;;;;;2.20;1.00;;;;;2.62;76.96;99966.16;5074953;28;8918;-59
2022/12/04 09:15:30;;;;;;;;;8.60;8.60;;;;;2.66;77.49;99970.34;5093716;28;8962;-59
2022/12/04 09:17:58;;;;;;;;;7.40;6.60;;;;;2.69;77.15;99967.56;5095243;28;8855;-59
2022/12/04 09:20:26;;;;;;;;;4.40;4.00;;;;;2.71;76.93;99971.84;5095219;28;8835;-59
2022/12/04 09:22:54;;;;;;;;;7.80;6.40;;;;;2.74;76.89;99968.22;5094970;28;8832;-59
2022/12/04 09:25:31;;;;;;;;;6.80;6.60;;;;;2.75;77.14;99969.91;5095221;28;8848;-59
2022/12/04 09:27:59;;;;;;;;;4.40;4.00;;;;;2.76;77.07;99966.34;5091760;28;8827;-59
2022/12/04 09:30:27;;;;;;;;;6.20;6.00;;;;;2.76;76.80;99972.47;5073793;28;8849;-58
2022/12/04 09:32:55;;;;;;;;;6.20;4.40;;;;;2.78;76.79;99975.88;5074067;28;8980;-58
2022/12/04 09:35:22;;;;;;;;;6.20;6.20;;;;;2.78;77.24;99975.88;5074498;28;8841;-59
2022/12/04 09:37:51;;;;;;;;;4.40;4.00;;;;;2.79;77.24;99977.56;5075387;28;8932;-59
2022/12/04 09:40:18;;;;;;;;;4.00;3.20;;;;;2.79;77.21;99974.94;5074371;28;8865;-57
2022/12/04 09:42:46;;;;;;;;;8.60;8.00;;;;;2.79;76.63;99972.31;5074858;28;9634;-60
2022/12/04 09:45:14;;;;;;;;;6.60;6.00;;;;;2.79;76.78;99972.31;5091611;28;9473;-58
2022/12/04 09:47:42;;;;;;;;;4.80;4.80;;;;;2.81;77.50;99980.97;5091522;28;8838;-58
2022/12/04 09:50:11;;;;;;;;;6.00;5.60;;;;;2.84;76.73;99985.25;5074484;28;8810;-60
2022/12/04 09:52:38;;;;;;;;;4.00;3.80;;;;;2.84;77.29;99975.59;5074896;28;8844;-58
2022/12/04 09:55:08;;;;;;;;;6.60;6.20;;;;;2.84;77.15;99980.00;5074940;28;8973;-60
2022/12/04 09:57:36;;;;;;;;;9.00;8.20;;;;;2.84;77.20;99980.84;5075078;28;8910;-59
2022/12/04 10:00:04;;;;;;;;;6.00;6.00;;;;;2.83;76.80;99979.16;5074949;28;8838;-59
2022/12/04 10:02:33;;;;;;;;;6.00;5.80;;;;;2.84;77.19;99980.84;5073960;28;8818;-60
2022/12/04 10:05:01;;;;;;;;;7.00;7.00;;;;;2.84;76.68;99975.59;5072476;28;8828;-58
2022/12/04 10:07:28;;;;;;;;;8.20;7.20;;;;;2.86;77.19;99973.72;5073971;28;8915;-60
2022/12/04 10:09:56;;;;;;;;;4.20;3.00;;;;;2.87;76.77;99974.59;5074021;28;8931;-58
2022/12/04 10:12:25;;;;;;;;;6.20;5.20;;;;;2.88;76.90;99973.66;5074220;28;8836;-60
2022/12/04 10:14:53;;;;;;;;;7.40;6.80;;;;;2.87;77.35;99970.19;5087512;28;8831;-59
2022/12/04 10:17:20;;;;;;;;;7.20;5.60;;;;;2.87;77.22;99959.66;5094403;28;8827;-60
2022/12/04 10:19:48;;;;;;;;;6.80;6.60;;;;;2.90;76.84;99954.28;5073964;28;8944;-60
2022/12/04 10:22:17;;;;;;;;;9.20;8.20;;;;;2.94;76.63;99960.22;5067033;28;8904;-60
2022/12/04 10:24:45;;;;;;;;;8.60;7.80;;;;;2.97;77.10;99966.19;5074867;28;8841;-59
2022/12/04 10:27:12;;;;;;;;;9.60;9.40;;;;;3.01;77.34;99967.72;5074733;28;8841;-59
2022/12/04 10:29:40;;;;;;;;;6.80;6.80;;;;;3.04;76.58;99970.19;5074753;28;8867;-60
2022/12/04 10:32:10;;;;;;;;;5.40;5.20;;;;;3.05;76.48;99971.06;5074311;28;8810;-60
2022/12/04 10:34:39;;;;;;;;;2.20;1.00;;;;;3.09;76.41;99960.31;5074452;28;9504;-58
2022/12/04 10:37:12;;;;;;;;;7.40;7.00;;;;;3.12;76.40;99956.69;5077493;28;8830;-58
2022/12/04 10:39:40;;;;;;;;;6.80;6.80;;;;;3.14;76.90;99958.31;5076812;28;8834;-60
2022/12/04 10:42:07;;;;;;;;;2.60;2.60;;;;;3.17;76.33;99941.53;5076700;28;8834;-60
2022/12/04 10:44:40;;;;;;;;;12.60;9.20;;;;;3.22;76.97;99945.63;5088110;28;8847;-60
2022/12/04 10:47:09;;;;;;;;;5.20;4.40;;;;;3.27;76.58;99942.78;5096942;28;8956;-60
2022/12/04 10:49:37;;;;;;;;;9.40;6.80;;;;;3.32;75.94;99941.59;5077570;28;8814;-60
2022/12/04 10:52:05;;;;;;;;;6.00;6.00;;;;;3.35;76.10;99936.22;5077029;28;8948;-60
2022/12/04 10:54:33;;;;;;;;;9.40;8.40;;;;;3.39;76.65;99932.47;5076958;28;8980;-59
2022/12/04 10:57:03;;;;;;;;;14.60;13.40;;;;;3.41;76.74;99925.34;5077372;28;8845;-60
2022/12/04 10:59:32;;;;;;;;;19.40;18.80;;;;;3.42;76.57;99921.78;5077471;28;8860;-59
2022/12/04 11:01:59;;;;;;;;;10.00;8.40;;;;;3.47;76.02;99914.53;5077450;28;8849;-59
2022/12/04 11:04:33;;;;;;;;;15.20;15.20;;;;;3.50;76.57;99906.47;5077316;28;8814;-60
2022/12/04 11:07:01;;;;;;;;;11.00;10.20;;;;;3.53;76.14;99902.81;5077137;28;8948;-60
2022/12/04 11:09:29;;;;;;;;;14.20;12.80;;;;;3.53;76.51;99898.41;5077672;28;8837;-57
2022/12/04 11:11:57;;;;;;;;;12.20;11.20;;;;;3.53;76.16;99898.41;5077255;28;8969;-59
2022/12/04 11:14:25;;;;;;;;;9.20;7.40;;;;;3.53;76.60;99897.56;5086339;28;8840;-59
2022/12/04 11:16:53;;;;;;;;;4.00;3.40;;;;;3.51;76.44;99889.75;5097729;28;8981;-59
2022/12/04 11:19:22;;;;;;;;;12.00;12.00;;;;;3.53;76.03;99887.03;5080144;28;8822;-58
2022/12/04 11:21:50;;;;;;;;;7.40;6.60;;;;;3.53;76.75;99897.56;5076119;28;8825;-57
2022/12/04 11:24:18;;;;;;;;;8.00;6.20;;;;;3.51;76.52;99899.41;5077187;28;8859;-58
2022/12/04 11:26:46;;;;;;;;;7.00;6.00;;;;;3.49;76.15;99896.84;5080533;28;8870;-59
2022/12/04 11:29:14;;;;;;;;;6.80;6.20;;;;;3.47;76.76;99904.00;5096537;28;8855;-60
2022/12/04 11:31:42;;;;;;;;;7.00;6.80;;;;;3.46;76.53;99904.91;5097080;28;8816;-59
2022/12/04 11:34:10;;;;;;;;;12.40;9.60;;;;;3.43;76.36;99897.19;5097451;28;8842;-58
2022/12/04 11:36:39;;;;;;;;;11.20;8.40;;;;;3.42;76.77;99897.28;5096955;28;9758;-60
2022/12/04 11:39:07;;;;;;;;;13.40;11.60;;;;;3.43;76.69;99902.47;5096447;28;8851;-59
2022/12/04 11:41:35;;;;;;;;;12.60;11.20;;;;;3.43;76.92;99889.31;5096852;28;8835;-59
2022/12/04 11:44:04;;;;;;;;;12.00;10.00;;;;;3.45;77.34;99878.69;5096624;28;8824;-58
2022/12/04 11:46:32;;;;;;;;;8.20;7.00;;;;;3.42;76.83;99878.84;5096713;28;8912;-59
2022/12/04 11:49:02;;;;;;;;;13.40;13.40;;;;;3.44;77.05;99876.97;5082591;28;8830;-60
2022/12/04 11:51:30;;;;;;;;;9.80;9.20;;;;;3.46;76.97;99880.38;5076099;28;8855;-59
2022/12/04 11:53:58;;;;;;;;;7.00;7.00;;;;;3.44;77.03;99883.09;5075862;28;8834;-59
2022/12/04 11:56:28;;;;;;;;;10.40;10.40;;;;;3.46;76.54;99877.75;5075476;28;8834;-59
2022/12/04 11:58:56;;;;;;;;;9.00;6.20;;;;;3.43;76.87;99870.88;5075593;28;8825;-58
2022/12/04 12:01:24;;;;;;;;;11.40;11.40;;;;;3.45;77.05;99865.53;5075810;28;8972;-60
2022/12/04 12:03:52;;;;;;;;;8.00;6.40;;;;;3.42;76.46;99868.31;5076264;28;8924;-60